Time;durP1;ratioP1;P1;durP2;ratioP2;P2;SDS_P1;SDS_P2;PMS_P1;PMS_P2;Temp;Humidity;BMP_temperature;BMP_pressure;BME280_temperature;BME280_humidity;BME280_pressure;Samples;Min_cycle;Max_cycle;Signal;HPM_P1;HPM_P2
2022/10/23 05:05:41;;;;;;;25.58;12.80;;;;;;;11.28;100.00;101213.31;5040791;28;20491;-72
2022/10/23 05:08:07;;;;;;;21.60;11.73;;;;;;;11.24;100.00;101209.66;5042898;28;20040;-73
2022/10/23 05:10:32;;;;;;;19.20;11.70;;;;;;;11.31;100.00;101198.56;5035533;28;20045;-73
2022/10/23 05:12:58;;;;;;;17.73;11.60;;;;;;;11.25;100.00;101202.84;5090428;22;20056;-72
2022/10/23 05:15:23;;;;;;;22.60;12.18;;;;;;;11.31;100.00;101198.56;5062807;28;20057;-73
2022/10/23 05:17:51;;;;;;;26.83;13.90;;;;;;;11.21;100.00;101196.38;5057150;28;20135;-74
2022/10/23 05:20:21;;;;;;;18.08;11.43;;;;;;;11.31;100.00;101187.34;5062073;28;20036;-74
2022/10/23 05:22:50;;;;;;;21.98;12.18;;;;;;;11.26;100.00;101194.09;5065424;28;20531;-74
2022/10/23 05:25:16;;;;;;;18.10;11.48;;;;;;;11.31;100.00;101184.53;5068927;28;20033;-72
2022/10/23 05:27:41;;;;;;;18.55;11.25;;;;;;;11.34;100.00;101180.97;5064312;28;20574;-74
2022/10/23 05:30:08;;;;;;;18.90;10.80;;;;;;;11.29;100.00;101170.09;5061905;28;20020;-73
2022/10/23 05:32:34;;;;;;;22.75;11.75;;;;;;;11.36;100.00;101170.19;5063826;28;20538;-72
2022/10/23 05:35:05;;;;;;;23.48;12.70;;;;;;;11.30;100.00;101171.69;5067990;28;20024;-72
2022/10/23 05:37:31;;;;;;;19.50;11.27;;;;;;;11.32;100.00;101174.94;5061949;28;20127;-72
2022/10/23 05:39:57;;;;;;;25.20;13.25;;;;;;;11.18;100.00;101176.34;5065694;28;20036;-72
2022/10/23 05:42:22;;;;;;;21.25;11.13;;;;;;;11.17;100.00;101171.94;5061445;28;20104;-72
2022/10/23 05:44:47;;;;;;;23.73;11.30;;;;;;;11.21;100.00;101168.38;5060250;28;20025;-74
2022/10/23 05:47:13;;;;;;;22.08;12.55;;;;;;;11.16;100.00;101175.09;5060959;28;21252;-72
2022/10/23 05:49:38;;;;;;;23.15;12.32;;;;;;;11.19;100.00;101172.38;5067200;28;20031;-72
2022/10/23 05:52:03;;;;;;;29.52;14.25;;;;;;;11.21;100.00;101162.75;5060577;28;20530;-74
2022/10/23 05:54:29;;;;;;;20.23;11.80;;;;;;;11.17;100.00;101169.13;5073995;28;20137;-73
2022/10/23 05:56:54;;;;;;;26.35;14.30;;;;;;;11.22;100.00;101170.00;5073109;28;20023;-74
2022/10/23 05:59:20;;;;;;;21.65;11.23;;;;;;;11.28;100.00;101168.47;5069526;28;20107;-72
2022/10/23 06:01:45;;;;;;;25.30;13.02;;;;;;;11.27;100.00;101164.06;5055070;28;20107;-74
2022/10/23 06:04:10;;;;;;;20.27;12.18;;;;;;;11.26;100.00;101168.88;5058335;28;20116;-72
2022/10/23 06:06:36;;;;;;;18.83;11.95;;;;;;;11.22;100.00;101170.78;5057604;28;20396;-72
2022/10/23 06:09:03;;;;;;;21.92;14.68;;;;;;;11.19;100.00;101171.53;5054805;28;20483;-73
2022/10/23 06:11:29;;;;;;;24.17;13.70;;;;;;;11.18;100.00;101167.13;5058060;28;20398;-72
2022/10/23 06:13:54;;;;;;;26.00;13.68;;;;;;;11.19;100.00;101172.38;5062256;28;20052;-73
2022/10/23 06:16:23;;;;;;;27.23;15.50;;;;;;;11.18;100.00;101153.91;5056086;28;20021;-73
2022/10/23 06:18:48;;;;;;;26.77;14.13;;;;;;;11.19;100.00;101160.31;5056935;28;20411;-72
2022/10/23 06:21:15;;;;;;;21.95;13.20;;;;;;;11.16;100.00;101170.28;5058422;28;20032;-72
2022/10/23 06:23:41;;;;;;;25.52;13.85;;;;;;;11.18;100.00;101159.53;5044272;28;20507;-74
2022/10/23 06:26:10;;;;;;;23.80;13.30;;;;;;;11.22;100.00;101164.41;5040211;28;20028;-72
2022/10/23 06:28:35;;;;;;;21.52;12.25;;;;;;;11.24;100.00;101162.03;5056005;28;20029;-73
2022/10/23 06:31:09;;;;;;;26.73;12.23;;;;;;;11.24;100.00;101153.63;5049182;28;20463;-73
2022/10/23 06:33:34;;;;;;;23.52;12.75;;;;;;;11.24;100.00;101156.41;5056765;28;20038;-74
2022/10/23 06:36:01;;;;;;;18.77;11.73;;;;;;;11.28;100.00;101157.25;5057009;28;20029;-72
2022/10/23 06:38:26;;;;;;;24.27;12.30;;;;;;;11.25;100.00;101146.81;5060513;28;20033;-72
2022/10/23 06:40:53;;;;;;;20.05;11.65;;;;;;;11.28;100.00;101140.44;5062762;28;20114;-74
2022/10/23 06:43:19;;;;;;;23.00;11.75;;;;;;;11.24;100.00;101140.41;5059951;28;20487;-74
2022/10/23 06:45:44;;;;;;;21.60;12.45;;;;;;;11.26;100.00;101142.81;5053993;28;20574;-73
2022/10/23 06:48:09;;;;;;;21.15;11.52;;;;;;;11.28;100.00;101134.84;5059483;28;20359;-72
2022/10/23 06:50:36;;;;;;;22.60;13.25;;;;;;;11.30;100.00;101143.69;5057560;28;20078;-74
2022/10/23 06:53:04;;;;;;;25.00;11.77;;;;;;;11.32;100.00;101141.31;5038808;28;20561;-74
2022/10/23 06:55:29;;;;;;;21.75;13.55;;;;;;;11.29;100.00;101136.47;5060471;28;20020;-72
2022/10/23 06:57:54;;;;;;;21.25;12.10;;;;;;;11.32;100.00;101135.72;5050727;28;20040;-72
2022/10/23 07:00:20;;;;;;;20.98;13.07;;;;;;;11.33;100.00;101142.94;5047857;28;20029;-72
2022/10/23 07:02:46;;;;;;;19.98;12.90;;;;;;;11.46;100.00;101135.94;5055005;28;20035;-73
2022/10/23 07:05:11;;;;;;;35.53;15.40;;;;;;;11.41;100.00;101127.84;5052228;28;20128;-72
2022/10/23 07:07:36;;;;;;;25.15;14.25;;;;;;;11.42;100.00;101140.66;5057225;28;20039;-73
2022/10/23 07:10:02;;;;;;;21.92;12.70;;;;;;;11.36;100.00;101139.38;5052209;28;20269;-73
2022/10/23 07:12:28;;;;;;;23.85;13.35;;;;;;;11.32;100.00;101142.13;5052566;28;20098;-72
2022/10/23 07:14:53;;;;;;;22.35;11.80;;;;;;;11.41;100.00;101127.84;5049876;28;20037;-74
2022/10/23 07:17:19;;;;;;;26.92;13.05;;;;;;;11.44;100.00;101138.31;5035877;28;20024;-72
2022/10/23 07:19:45;;;;;;;25.90;13.23;;;;;;;11.39;100.00;101127.44;5048576;28;20638;-73
2022/10/23 07:22:11;;;;;;;23.05;12.82;;;;;;;11.42;100.00;101135.06;5051069;28;20037;-72
2022/10/23 07:24:37;;;;;;;20.55;12.13;;;;;;;11.47;100.00;101134.75;5051671;28;20021;-74
2022/10/23 07:27:03;;;;;;;27.90;12.63;;;;;;;11.48;100.00;101130.75;5051071;28;20368;-72
2022/10/23 07:29:29;;;;;;;18.92;11.70;;;;;;;11.49;100.00;101118.38;5050228;28;20747;-72
2022/10/23 07:31:56;;;;;;;25.73;13.85;;;;;;;11.54;100.00;101120.84;5052375;28;20479;-74
2022/10/23 07:34:21;;;;;;;21.83;12.65;;;;;;;11.59;100.00;101123.31;5054036;28;20043;-72
2022/10/23 07:36:46;;;;;;;19.38;12.85;;;;;;;11.54;100.00;101115.22;5040574;28;20036;-72
2022/10/23 07:39:12;;;;;;;22.70;11.82;;;;;;;11.54;100.00;101108.81;5061572;28;20029;-72
2022/10/23 07:41:38;;;;;;;19.55;11.25;;;;;;;11.57;100.00;101108.88;5054728;28;20027;-74
2022/10/23 07:44:03;;;;;;;23.42;11.73;;;;;;;11.62;100.00;101116.16;5053365;28;20056;-73
2022/10/23 07:46:29;;;;;;;26.45;13.00;;;;;;;11.66;100.00;101105.78;5055849;28;20016;-72
2022/10/23 07:48:54;;;;;;;25.13;13.65;;;;;;;11.67;100.00;101100.97;5055942;28;20028;-74
2022/10/23 07:51:20;;;;;;;18.60;11.82;;;;;;;11.70;100.00;101103.84;5054838;28;21987;-73
2022/10/23 07:53:45;;;;;;;25.77;12.30;;;;;;;11.73;100.00;101116.28;5054377;28;20017;-72
2022/10/23 07:56:15;;;;;;;21.45;11.93;;;;;;;11.77;100.00;101106.72;5057587;28;20762;-72
2022/10/23 07:58:41;;;;;;;19.92;12.27;;;;;;;11.82;100.00;101102.78;5039611;28;20039;-72
2022/10/23 08:01:15;;;;;;;22.60;13.73;;;;;;;11.79;100.00;101090.31;5045434;28;20036;-73
2022/10/23 08:03:40;;;;;;;26.77;13.35;;;;;;;11.81;100.00;101095.56;5057840;28;20388;-72
2022/10/23 08:06:06;;;;;;;19.75;12.05;;;;;;;11.85;100.00;101101.19;5063534;28;20038;-73
2022/10/23 08:08:31;;;;;;;21.60;13.00;;;;;;;11.87;100.00;101096.84;5061965;28;20024;-73
2022/10/23 08:10:57;;;;;;;28.33;13.63;;;;;;;11.92;100.00;101099.34;5061420;28;20020;-74
2022/10/23 08:13:22;;;;;;;22.58;13.48;;;;;;;11.92;100.00;101098.53;5040201;28;20531;-73
2022/10/23 08:15:50;;;;;;;29.25;13.38;;;;;;;11.98;100.00;101095.00;5052506;28;20419;-72
2022/10/23 08:18:15;;;;;;;25.45;14.30;;;;;;;12.45;100.00;101100.31;5058686;28;20047;-74
2022/10/23 08:20:43;;;;;;;21.10;12.30;;;;;;;12.34;100.00;101089.78;5040108;28;20021;-73
2022/10/23 08:23:11;;;;;;;19.55;12.15;;;;;;;12.35;100.00;101097.03;5056792;28;20468;-72
2022/10/23 08:25:37;;;;;;;20.20;12.68;;;;;;;12.34;100.00;101086.19;5056665;28;20039;-73
2022/10/23 08:28:03;;;;;;;16.98;12.45;;;;;;;12.34;100.00;101089.78;5052872;28;20035;-73
2022/10/23 08:30:28;;;;;;;19.38;12.45;;;;;;;12.33;100.00;101087.34;5057213;28;20107;-73
2022/10/23 08:32:53;;;;;;;19.25;12.20;;;;;;;12.36;100.00;101087.41;5063540;28;20048;-72
2022/10/23 08:35:19;;;;;;;21.80;12.07;;;;;;;12.36;100.00;101086.59;5034429;28;20083;-73
2022/10/23 08:37:44;;;;;;;24.88;13.27;;;;;;;12.41;100.00;101089.84;5061861;28;20357;-75
2022/10/23 08:40:20;;;;;;;26.38;13.23;;;;;;;12.46;100.00;101082.28;5043387;28;20425;-73
2022/10/23 08:42:52;;;;;;;24.10;12.80;;;;;;;12.50;100.00;101083.13;5052612;28;20035;-73
2022/10/23 08:45:23;;;;;;;22.13;13.30;;;;;;;12.52;100.00;101080.72;5055619;28;20028;-74
2022/10/23 08:47:54;;;;;;;22.55;11.95;;;;;;;12.53;100.00;101085.97;5040218;28;20025;-73
2022/10/23 08:50:31;;;;;;;22.70;13.40;;;;;;;12.59;100.00;101083.63;5040744;28;20123;-72
2022/10/23 08:53:08;;;;;;;23.00;12.90;;;;;;;12.58;100.00;101076.38;5066556;28;20520;-73
2022/10/23 08:55:58;;;;;;;20.42;12.68;;;;;;;12.64;100.00;101080.44;5057218;28;20060;-72
2022/10/23 08:58:30;;;;;;;22.15;13.10;;;;;;;12.65;100.00;101076.47;5054042;28;20024;-72
2022/10/23 09:00:57;;;;;;;27.40;11.93;;;;;;;12.67;100.00;101051.59;5062574;28;20033;-73
2022/10/23 09:03:22;;;;;;;19.13;12.07;;;;;;;12.66;100.00;101060.41;5060171;28;20064;-73
2022/10/23 09:06:32;;;;;;;27.27;13.27;;;;;;;12.71;100.00;101054.41;5060836;28;20071;-74
2022/10/23 09:09:25;;;;;;;20.45;12.23;;;;;;;12.78;100.00;101046.06;5035330;28;20480;-73
2022/10/23 09:12:11;;;;;;;23.65;11.30;;;;;;;12.79;100.00;101042.84;5055354;28;20086;-73
2022/10/23 09:14:55;;;;;;;20.58;11.65;;;;;;;12.86;100.00;101041.31;5039904;28;20590;-73
2022/10/23 09:17:39;;;;;;;22.35;12.30;;;;;;;12.84;100.00;101035.25;5045381;28;20536;-75
2022/10/23 09:20:24;;;;;;;23.98;11.65;;;;;;;12.90;100.00;101037.34;5055896;28;20026;-73
2022/10/23 09:22:54;;;;;;;19.67;9.35;;;;;;;12.94;100.00;101032.53;5033785;28;20095;-73
2022/10/23 09:25:26;;;;;;;22.90;12.55;;;;;;;13.00;100.00;101041.41;5056417;28;20521;-73
2022/10/23 09:27:55;;;;;;;21.27;11.52;;;;;;;12.96;100.00;101024.53;5052820;28;20865;-73
2022/10/23 09:30:24;;;;;;;16.80;10.52;;;;;;;12.97;100.00;101020.53;5051614;28;20093;-73
2022/10/23 09:32:50;;;;;;;19.67;11.77;;;;;;;13.01;100.00;101006.50;5059461;28;20043;-73
2022/10/23 09:35:21;;;;;;;17.08;10.27;;;;;;;12.95;100.00;100994.81;5048636;28;20036;-72
2022/10/23 09:37:47;;;;;;;20.23;12.43;;;;;;;13.04;100.00;101007.72;5057224;28;20413;-72
2022/10/23 09:40:17;;;;;;;26.90;11.38;;;;;;;13.04;100.00;101002.91;5061226;28;20029;-73
2022/10/23 09:43:14;;;;;;;24.40;12.75;;;;;;;13.08;100.00;101014.97;5059192;28;20028;-73
2022/10/23 09:45:41;;;;;;;27.55;11.40;;;;;;;13.16;100.00;101004.59;5066208;28;20032;-72
2022/10/23 09:48:16;;;;;;;18.52;11.07;;;;;;;13.17;100.00;101009.00;5068631;28;20040;-74
2022/10/23 09:50:54;;;;;;;22.00;12.07;;;;;;;13.23;100.00;101002.59;5061961;28;20365;-73
2022/10/23 09:53:35;;;;;;;19.35;11.55;;;;;;;13.28;100.00;101000.63;5060914;28;20060;-74
2022/10/23 09:56:19;;;;;;;31.90;13.35;;;;;;;13.36;100.00;100991.06;5059929;28;20032;-72
2022/10/23 09:58:54;;;;;;;21.65;11.40;;;;;;;13.42;100.00;100989.47;5058124;28;20033;-75
2022/10/23 10:01:29;;;;;;;29.25;12.48;;;;;;;13.46;100.00;100995.13;5041732;28;20056;-73
2022/10/23 10:03:55;;;;;;;25.02;11.45;;;;;;;13.50;100.00;100985.50;5043816;28;20039;-72
2022/10/23 10:06:25;;;;;;;17.73;10.70;;;;;;;13.51;100.00;100995.53;5068730;28;20036;-73
2022/10/23 10:08:53;;;;;;;20.60;11.13;;;;;;;13.55;100.00;100993.53;5065499;28;20545;-75
2022/10/23 10:11:29;;;;;;;19.70;11.27;;;;;;;13.60;100.00;100983.94;5062226;28;20075;-73
2022/10/23 10:14:40;;;;;;;19.55;10.65;;;;;;;13.56;100.00;100989.53;5055670;28;20040;-74
2022/10/23 10:17:20;;;;;;;22.25;10.65;;;;;;;13.58;100.00;100980.72;5031871;28;20036;-73
2022/10/23 10:20:12;;;;;;;19.15;11.50;;;;;;;13.57;100.00;100979.91;5063356;28;20426;-74
2022/10/23 10:23:01;;;;;;;16.48;9.35;;;;;;;13.62;100.00;100981.53;5058285;28;20024;-73
2022/10/23 10:25:51;;;;;;;20.10;10.07;;;;;;;13.58;100.00;100973.09;5060551;28;20514;-72
2022/10/23 10:28:38;;;;;;;16.77;10.50;;;;;;;13.55;100.00;100971.03;5061432;28;20092;-73
2022/10/23 10:31:21;;;;;;;14.88;10.45;;;;;;;13.60;100.00;100961.44;5054153;28;20032;-72
2022/10/23 10:34:14;;;;;;;18.60;10.88;;;;;;;13.57;100.00;100962.22;5056031;28;20441;-73
2022/10/23 10:36:45;;;;;;;;;;;;;;;13.58;100.00;100963.84;5053636;28;20532;-74
2022/10/23 10:39:20;;;;;;;17.17;10.43;;;;;;;13.57;100.00;100950.97;5043741;28;20276;-74
2022/10/23 10:41:59;;;;;;;16.27;9.90;;;;;;;13.53;100.00;100944.53;5060748;28;20040;-75
2022/10/23 10:44:44;;;;;;;20.40;10.90;;;;;;;13.57;100.00;100934.91;5062304;28;20024;-72
2022/10/23 10:47:09;;;;;;;16.85;9.85;;;;;;;13.58;100.00;100922.47;5063700;28;20075;-73
2022/10/23 10:49:57;;;;;;;20.67;10.52;;;;;;;13.60;100.00;100916.44;5043136;28;20119;-72
2022/10/23 10:52:29;;;;;;;18.08;10.70;;;;;;;13.62;100.00;100934.53;5061185;28;20498;-74
2022/10/23 10:55:12;;;;;;;18.83;10.05;;;;;;;13.65;100.00;100934.94;5062258;28;20546;-75
2022/10/23 10:57:41;;;;;;;16.17;9.82;;;;;;;13.66;100.00;100920.47;5064968;28;20476;-74
2022/10/23 11:00:27;;;;;;;21.88;9.02;;;;;;;13.72;100.00;100935.75;5061583;28;20036;-73
2022/10/23 11:03:27;;;;;;;16.95;10.23;;;;;;;13.77;100.00;100926.13;5061415;28;20082;-73
2022/10/23 11:05:56;;;;;;;16.27;10.05;;;;;;;13.82;100.00;100931.34;5061706;28;20100;-73
2022/10/23 11:08:34;;;;;;;19.35;9.18;;;;;;;13.87;100.00;100918.88;5065616;28;20040;-72
2022/10/23 11:11:06;;;;;;;28.45;10.85;;;;;;;13.88;100.00;100921.31;5059681;28;20256;-73
2022/10/23 11:13:36;;;;;;;;;;;;;;;13.90;100.00;100907.66;5060003;28;20526;-74
2022/10/23 11:16:24;;;;;;;17.98;9.20;;;;;;;13.95;100.00;100886.75;5057888;28;20295;-72
2022/10/23 11:19:07;;;;;;;16.25;8.98;;;;;;;13.96;100.00;100871.50;5057210;28;20033;-72
2022/10/23 11:21:46;;;;;;;14.18;8.68;;;;;;;13.96;100.00;100868.69;5055659;28;20853;-74
2022/10/23 11:24:39;;;;;;;16.92;8.93;;;;;;;14.01;100.00;100860.63;5060213;28;20476;-72
2022/10/23 11:27:22;;;;;;;18.75;8.77;;;;;;;14.01;100.00;100845.75;5063927;28;20035;-72
2022/10/23 11:30:15;;;;;;;12.13;8.73;;;;;;;14.01;100.00;100835.28;5053260;28;20027;-73
2022/10/23 11:32:51;;;;;;;17.38;8.55;;;;;;;13.98;100.00;100830.47;5060042;28;20115;-74
2022/10/23 11:35:35;;;;;;;17.40;9.15;;;;;;;14.07;100.00;100827.25;5056413;28;20064;-72
2022/10/23 11:38:16;;;;;;;15.45;9.25;;;;;;;14.07;100.00;100826.44;5038169;28;20029;-71
2022/10/23 11:41:03;;;;;;;16.13;8.65;;;;;;;14.03;100.00;100840.53;5059881;28;20583;-71
2022/10/23 11:43:32;;;;;;;15.25;8.35;;;;;;;14.05;100.00;100828.88;5054585;28;20048;-72
2022/10/23 11:46:09;;;;;;;21.33;8.35;;;;;;;14.05;100.00;100826.84;5058637;28;20024;-72
2022/10/23 11:48:38;;;;;;;14.10;8.23;;;;;;;14.08;100.00;100817.59;5057916;28;20037;-71
2022/10/23 11:51:05;;;;;;;16.20;8.95;;;;;;;14.12;100.00;100818.38;5048908;28;20033;-72
2022/10/23 11:53:30;;;;;;;15.35;8.65;;;;;;;14.15;100.00;100805.53;5054509;28;20995;-72
2022/10/23 11:56:18;;;;;;;14.82;8.15;;;;;;;14.14;100.00;100796.28;5056551;28;20036;-74
2022/10/23 11:58:56;;;;;;;18.55;8.68;;;;;;;14.17;100.00;100794.69;5018983;28;20460;-71
2022/10/23 12:02:02;;;;;;;10.35;7.68;;;;;;;14.19;100.00;100790.25;5052719;28;20484;-74
2022/10/23 12:04:45;;;;;;;14.77;8.60;;;;;;;14.21;100.00;100778.59;4983015;28;20481;-71
2022/10/23 12:07:31;;;;;;;14.48;8.30;;;;;;;14.19;100.00;100772.56;5052419;28;20067;-71
2022/10/23 12:10:27;;;;;;;13.15;8.05;;;;;;;14.17;100.00;100781.41;5052649;28;20017;-71
2022/10/23 12:12:58;;;;;;;14.32;8.35;;;;;;;14.16;100.00;100762.88;5047793;28;20056;-72
2022/10/23 12:15:25;;;;;;;15.35;8.07;;;;;;;14.18;100.00;100756.88;5050148;28;20640;-73
2022/10/23 12:17:55;;;;;;;14.15;7.30;;;;;;;14.16;100.00;100754.44;5051419;28;20036;-73
2022/10/23 12:20:50;;;;;;;20.38;8.45;;;;;;;14.20;100.00;100748.81;5028014;28;20037;-75
2022/10/23 12:23:37;;;;;;;18.40;8.07;;;;;;;14.25;100.00;100739.94;5049506;28;20179;-73
2022/10/23 12:26:39;;;;;;;13.30;8.30;;;;;;;14.28;100.00;100733.50;5055536;28;20111;-72
2022/10/23 12:29:28;;;;;;;17.25;8.68;;;;;;;14.37;100.00;100719.00;5062125;28;20021;-73
2022/10/23 12:31:59;;;;;;;10.02;7.03;;;;;;;14.42;100.00;100727.03;5057271;28;20028;-72
2022/10/23 12:34:27;;;;;;;16.95;7.78;;;;;;;14.48;100.00;100719.75;5058868;28;20024;-72
2022/10/23 12:37:14;;;;;;;15.02;7.57;;;;;;;14.57;100.00;100719.38;5065849;28;20359;-72
2022/10/23 12:39:39;;;;;;;14.10;7.18;;;;;;;14.56;100.00;100717.75;5063478;28;20103;-72
2022/10/23 12:42:31;;;;;;;10.43;7.28;;;;;;;14.58;100.00;100715.31;5060823;28;20151;-72
2022/10/23 12:45:02;;;;;;;14.15;6.90;;;;;;;14.63;100.00;100701.63;5048116;28;20079;-72
2022/10/23 12:47:28;;;;;;;12.65;6.80;;;;;;;14.67;100.00;100695.16;5051283;28;20032;-72
2022/10/23 12:49:54;;;;;;;10.93;6.30;;;;;;;14.74;100.00;100693.09;5060451;28;20035;-72
2022/10/23 12:52:20;;;;;;;11.88;6.18;;;;;;;14.79;100.00;100683.41;5067387;28;20033;-72
2022/10/23 12:54:49;;;;;;;13.48;7.45;;;;;;;14.84;100.00;100678.16;5070977;28;20455;-73
2022/10/23 12:57:27;;;;;;;12.95;6.47;;;;;;;14.79;100.00;100680.59;5069729;28;20031;-72
2022/10/23 12:59:56;;;;;;;11.70;6.47;;;;;;;14.80;100.00;100677.38;5047547;28;20033;-72
2022/10/23 13:02:26;;;;;;;9.85;6.60;;;;;;;14.84;100.00;100680.16;5045483;28;20079;-72
2022/10/23 13:04:53;;;;;;;13.43;6.82;;;;;;;14.89;100.00;100673.31;5062992;28;20043;-72
2022/10/23 13:07:24;;;;;;;13.20;6.65;;;;;;;14.94;100.00;100662.38;5048844;28;20032;-73
2022/10/23 13:09:50;;;;;;;13.55;6.95;;;;;;;14.91;100.00;100651.94;5058716;28;20112;-72
2022/10/23 13:12:25;;;;;;;11.80;6.80;;;;;;;14.91;100.00;100648.34;5062812;28;20044;-72
2022/10/23 13:15:06;;;;;;;12.80;6.45;;;;;;;14.90;100.00;100658.78;5064909;28;20028;-71
2022/10/23 13:17:40;;;;;;;13.95;6.70;;;;;;;14.93;100.00;100662.81;5065926;28;20120;-73
2022/10/23 13:20:08;;;;;;;13.50;7.50;;;;;;;14.96;100.00;100656.34;5071504;28;20127;-72
2022/10/23 13:22:33;;;;;;;12.15;6.45;;;;;;;14.98;100.00;100653.91;5068481;28;20032;-72
2022/10/23 13:24:59;;;;;;;24.15;7.75;;;;;;;15.00;100.00;100651.47;5072483;28;20020;-73
2022/10/23 13:27:30;;;;;;;10.85;6.30;;;;;;;14.98;100.00;100637.00;5052120;28;20021;-72
2022/10/23 13:29:55;;;;;;;12.73;6.63;;;;;;;14.99;100.00;100636.59;5058205;28;20032;-72
2022/10/23 13:32:23;;;;;;;13.10;7.38;;;;;;;15.08;100.00;100624.84;5068346;28;20507;-73
2022/10/23 13:34:57;;;;;;;9.55;7.05;;;;;;;15.04;100.00;100618.44;5064640;28;20043;-73
2022/10/23 13:37:25;;;;;;;8.98;5.53;;;;;;;15.07;100.00;100605.50;5067097;28;20578;-72
2022/10/23 13:40:03;;;;;;;13.13;6.15;;;;;;;15.07;100.00;100614.75;5058479;28;22396;-73
2022/10/23 13:42:28;;;;;;;14.13;7.22;;;;;;;15.05;100.00;100614.38;5063014;28;20063;-72
2022/10/23 13:44:54;;;;;;;13.45;6.75;;;;;;;15.07;100.00;100611.16;5054289;28;20040;-72
2022/10/23 13:47:20;;;;;;;16.48;6.60;;;;;;;15.06;100.00;100599.09;5060170;28;20025;-72
2022/10/23 13:49:45;;;;;;;9.50;5.90;;;;;;;15.14;100.00;100589.34;5048367;28;20091;-73
2022/10/23 13:52:14;;;;;;;16.00;6.25;;;;;;;15.22;100.00;100590.06;5063378;28;20033;-72
2022/10/23 13:54:39;;;;;;;11.32;6.15;;;;;;;15.17;100.00;100590.53;5054209;28;20063;-72
2022/10/23 13:57:08;;;;;;;14.23;6.53;;;;;;;15.18;100.00;100580.88;5066783;28;20487;-73
2022/10/23 13:59:34;;;;;;;8.85;5.72;;;;;;;15.23;100.00;100569.13;5067150;28;20025;-72
2022/10/23 14:01:59;;;;;;;10.63;5.47;;;;;;;15.28;100.00;100570.69;5039731;28;20039;-72
2022/10/23 14:04:24;;;;;;;9.10;5.78;;;;;;;15.30;100.00;100574.69;5071404;28;20025;-72
2022/10/23 14:06:53;;;;;;;10.45;6.15;;;;;;;15.29;100.00;100559.00;5049779;28;20028;-72
2022/10/23 14:09:18;;;;;;;9.18;6.60;;;;;;;15.34;100.00;100552.09;5063257;28;20025;-72
2022/10/23 14:11:44;;;;;;;10.77;5.65;;;;;;;15.39;100.00;100546.00;5062728;28;20024;-73
2022/10/23 14:14:10;;;;;;;10.52;5.60;;;;;;;15.38;100.00;100548.00;5060686;28;20059;-73
2022/10/23 14:16:35;;;;;;;13.75;7.90;;;;;;;15.41;100.00;100546.38;5058501;28;20064;-72
2022/10/23 14:19:00;;;;;;;13.30;8.57;;;;;;;15.41;100.00;100538.72;5044903;28;20024;-72
2022/10/23 14:21:26;;;;;;;11.98;6.68;;;;;;;15.44;100.00;100535.06;5064439;28;20495;-72
2022/10/23 14:23:52;;;;;;;10.90;5.60;;;;;;;15.49;100.00;100525.31;5054275;28;20483;-73
2022/10/23 14:26:23;;;;;;;13.77;6.20;;;;;;;15.47;100.00;100515.69;5062501;28;20391;-72
2022/10/23 14:28:53;;;;;;;12.77;5.90;;;;;;;15.52;100.00;100518.06;5065087;28;20036;-72
2022/10/23 14:31:18;;;;;;;11.07;5.63;;;;;;;15.48;100.00;100520.91;5062187;28;20016;-73
2022/10/23 14:33:45;;;;;;;10.65;5.85;;;;;;;15.57;100.00;100509.13;5059031;28;20096;-74
2022/10/23 14:36:11;;;;;;;12.43;5.85;;;;;;;15.60;100.00;100511.91;5062410;28;20495;-72
2022/10/23 14:38:37;;;;;;;9.45;5.82;;;;;;;15.52;100.00;100513.22;5056716;28;20045;-72
2022/10/23 14:41:09;;;;;;;12.73;5.18;;;;;;;15.59;100.00;100513.13;5067001;28;20150;-72
2022/10/23 14:43:34;;;;;;;7.10;4.65;;;;;;;15.59;100.00;100503.88;5059132;28;20429;-73
2022/10/23 14:46:16;;;;;;;7.47;4.18;;;;;;;15.60;100.00;100502.63;5054147;28;20043;-73
2022/10/23 14:48:42;;;;;;;11.30;4.97;;;;;;;15.61;100.00;100493.75;5055103;28;20423;-73
2022/10/23 14:51:20;;;;;;;11.93;4.57;;;;;;;15.61;100.00;100479.66;5059594;28;20111;-72
2022/10/23 14:53:46;;;;;;;11.93;6.90;;;;;;;15.60;100.00;100495.00;5062029;28;20098;-73
2022/10/23 14:56:11;;;;;;;9.40;5.28;;;;;;;15.59;100.00;100489.75;5053573;28;20453;-73
2022/10/23 14:58:37;;;;;;;13.07;6.05;;;;;;;15.61;100.00;100485.28;5061878;28;20111;-72
2022/10/23 15:01:02;;;;;;;15.32;9.13;;;;;;;15.64;100.00;100478.81;5065042;28;20441;-73
2022/10/23 15:03:28;;;;;;;9.05;6.30;;;;;;;15.65;100.00;100483.22;5059288;28;20028;-72
2022/10/23 15:05:54;;;;;;;7.20;5.10;;;;;;;15.68;100.00;100480.78;5058072;28;20052;-72
2022/10/23 15:08:20;;;;;;;12.52;6.47;;;;;;;15.65;100.00;100482.44;5041745;28;20078;-72
2022/10/23 15:10:45;;;;;;;8.13;4.85;;;;;;;15.65;100.00;100471.94;5054001;28;20025;-73
2022/10/23 15:13:11;;;;;;;10.13;4.40;;;;;;;15.71;100.00;100468.66;5055181;28;20068;-73
2022/10/23 15:15:36;;;;;;;8.00;4.75;;;;;;;15.66;100.00;100467.09;5041276;28;20028;-72
2022/10/23 15:18:01;;;;;;;6.88;4.40;;;;;;;15.61;100.00;100471.19;5038950;28;20017;-72
2022/10/23 15:20:27;;;;;;;12.55;4.50;;;;;;;15.65;100.00;100469.13;5054793;28;20033;-74
2022/10/23 15:22:52;;;;;;;14.82;6.75;;;;;;;15.63;100.00;100474.38;5053755;28;20017;-74
2022/10/23 15:25:17;;;;;;;14.25;5.05;;;;;;;15.57;100.00;100470.44;5060134;28;20040;-73
2022/10/23 15:27:43;;;;;;;8.95;5.25;;;;;;;15.56;100.00;100468.84;5060751;28;20399;-74
2022/10/23 15:30:09;;;;;;;9.52;5.43;;;;;;;15.53;100.00;100464.03;5057925;28;20473;-74
2022/10/23 15:32:35;;;;;;;8.30;5.28;;;;;;;15.52;100.00;100456.00;5055015;28;20115;-73
2022/10/23 15:35:00;;;;;;;10.27;5.53;;;;;;;15.49;100.00;100456.84;5054788;28;20171;-74
2022/10/23 15:37:25;;;;;;;8.65;4.82;;;;;;;15.45;100.00;100457.69;5034829;28;20874;-74
2022/10/23 15:39:51;;;;;;;10.50;4.85;;;;;;;15.47;100.00;100464.94;5051169;28;20123;-73
2022/10/23 15:42:17;;;;;;;13.38;5.28;;;;;;;15.46;100.00;100447.22;5055126;28;20383;-75
2022/10/23 15:44:43;;;;;;;11.02;5.40;;;;;;;15.46;100.00;100444.41;5030110;28;20066;-73
2022/10/23 15:47:09;;;;;;;12.25;5.43;;;;;;;15.43;100.00;100431.94;5059202;28;20431;-72
2022/10/23 15:49:34;;;;;;;18.25;10.65;;;;;;;15.45;100.00;100434.31;5055925;28;20047;-72
2022/10/23 15:52:01;;;;;;;12.48;6.32;;;;;;;15.39;100.00;100425.53;5055604;28;20025;-74
2022/10/23 15:54:26;;;;;;;10.57;6.10;;;;;;;15.37;100.00;100421.56;5051498;28;20059;-72
2022/10/23 15:56:52;;;;;;;13.55;4.72;;;;;;;15.34;100.00;100411.09;5052507;28;20119;-72
2022/10/23 15:59:20;;;;;;;13.63;5.57;;;;;;;15.35;100.00;100416.31;5051879;28;20039;-72
2022/10/23 16:01:45;;;;;;;7.45;5.93;;;;;;;15.34;100.00;100416.75;5054085;28;20037;-74
2022/10/23 16:04:10;;;;;;;6.88;5.80;;;;;;;15.30;100.00;100416.00;5035265;28;20028;-73
2022/10/23 16:06:36;;;;;;;8.90;7.40;;;;;;;15.28;100.00;100413.56;5053650;28;20032;-72
2022/10/23 16:09:02;;;;;;;6.95;5.10;;;;;;;15.36;100.00;100409.44;5054227;28;20028;-73
2022/10/23 16:11:30;;;;;;;40.47;24.63;;;;;;;15.35;100.00;100409.91;5057300;28;20024;-71
2022/10/23 16:13:57;;;;;;;24.77;11.82;;;;;;;15.29;100.00;100397.47;5056794;28;20052;-74
2022/10/23 16:16:23;;;;;;;14.10;8.45;;;;;;;15.28;100.00;100407.16;5055669;28;20433;-71
2022/10/23 16:18:49;;;;;;;9.48;7.57;;;;;;;15.32;100.00;100408.69;5035115;28;20035;-72
2022/10/23 16:21:21;;;;;;;12.43;8.15;;;;;;;15.31;100.00;100398.66;5056914;28;20119;-72
2022/10/23 16:23:46;;;;;;;14.55;7.82;;;;;;;15.35;100.00;100401.44;5041527;28;20029;-72
2022/10/23 16:26:15;;;;;;;11.38;7.63;;;;;;;15.36;100.00;100391.75;5064103;28;20043;-72
2022/10/23 16:28:43;;;;;;;11.18;8.20;;;;;;;15.35;100.00;100390.94;5057556;28;20067;-72